Time;durP1;ratioP1;P1;durP2;ratioP2;P2;SDS_P1;SDS_P2;PMS_P1;PMS_P2;Temp;Humidity;BMP_temperature;BMP_pressure;BME280_temperature;BME280_humidity;BME280_pressure;Samples;Min_cycle;Max_cycle;Signal;HPM_P1;HPM_P2
2023/10/06 00:01:43;;;;;;;7.25;2.42;;;12.80;99.90;;;;;;4962482;28;20436;-77
2023/10/06 00:04:12;;;;;;;8.65;2.97;;;12.80;99.90;;;;;;4957750;28;20038;-77
2023/10/06 00:06:40;;;;;;;10.20;3.20;;;12.80;99.90;;;;;;4973857;28;20601;-77
2023/10/06 00:09:06;;;;;;;5.95;3.22;;;12.80;99.90;;;;;;4975984;28;20577;-78
2023/10/06 00:11:32;;;;;;;16.90;2.95;;;12.80;99.90;;;;;;4975191;28;20406;-78
2023/10/06 00:14:03;;;;;;;6.97;2.42;;;12.80;99.90;;;;;;4962133;28;20028;-77
2023/10/06 00:16:38;;;;;;;6.65;2.78;;;12.80;99.90;;;;;;4972880;28;20077;-78
2023/10/06 00:19:12;;;;;;;12.27;3.10;;;12.80;99.90;;;;;;4974160;28;20023;-77
2023/10/06 00:21:44;;;;;;;5.43;3.33;;;12.80;99.90;;;;;;4954603;28;20034;-77
2023/10/06 00:24:10;;;;;;;8.68;3.00;;;12.70;99.90;;;;;;4961150;28;20066;-78
2023/10/06 00:26:37;;;;;;;6.20;3.22;;;12.70;99.90;;;;;;4979128;28;20540;-78
2023/10/06 00:29:09;;;;;;;7.90;2.97;;;12.70;99.90;;;;;;4974399;28;20030;-77
2023/10/06 00:31:35;;;;;;;10.68;2.78;;;12.70;99.90;;;;;;4971858;28;20652;-77
2023/10/06 00:34:01;;;;;;;9.88;3.35;;;12.70;99.90;;;;;;4956422;28;20154;-78
2023/10/06 00:36:29;;;;;;;9.27;2.75;;;12.70;99.90;;;;;;4971173;28;20487;-77
2023/10/06 00:38:54;;;;;;;7.28;2.40;;;12.70;99.90;;;;;;4958089;28;20479;-78
2023/10/06 00:41:21;;;;;;;10.82;3.17;;;12.70;99.90;;;;;;4957521;28;20081;-78
2023/10/06 00:43:50;;;;;;;7.07;2.63;;;12.80;99.90;;;;;;4961552;28;20034;-78
2023/10/06 00:46:18;;;;;;;10.30;3.78;;;12.80;99.90;;;;;;4973624;28;20156;-78
2023/10/06 00:48:45;;;;;;;8.52;2.90;;;12.80;99.90;;;;;;4958430;28;20052;-78
2023/10/06 00:51:29;;;;;;;5.18;3.08;;;12.70;99.90;;;;;;4975190;28;20038;-79
2023/10/06 00:53:56;;;;;;;6.60;2.60;;;12.70;99.90;;;;;;4977234;28;20038;-78
2023/10/06 00:56:25;;;;;;;8.90;3.03;;;12.70;99.90;;;;;;4973117;28;20045;-78
2023/10/06 00:58:51;;;;;;;7.10;2.83;;;12.70;99.90;;;;;;4963084;28;20042;-79
2023/10/06 01:01:17;;;;;;;7.78;2.90;;;12.70;99.90;;;;;;4960441;28;20041;-79
2023/10/06 01:06:35;;;;;;;13.30;3.90;;;12.80;99.90;;;;;;4972503;28;20053;-78
2023/10/06 01:09:16;;;;;;;8.43;3.45;;;12.70;99.90;;;;;;4962534;28;20390;-78
2023/10/06 01:11:46;;;;;;;10.38;3.13;;;12.60;99.90;;;;;;4980476;28;20759;-78
2023/10/06 01:14:14;;;;;;;8.60;3.53;;;12.60;99.90;;;;;;4956052;28;20080;-79
2023/10/06 01:16:42;;;;;;;6.70;3.03;;;12.70;99.90;;;;;;4970802;28;20214;-79
2023/10/06 01:19:15;;;;;;;11.75;3.63;;;12.70;99.90;;;;;;4973307;28;20065;-78
2023/10/06 01:21:47;;;;;;;9.52;3.03;;;12.70;99.90;;;;;;4980157;28;20034;-78
2023/10/06 01:24:14;;;;;;;16.88;4.13;;;12.70;99.90;;;;;;4957418;28;20085;-78
2023/10/06 01:26:41;;;;;;;7.65;2.65;;;12.60;99.90;;;;;;4941621;28;20082;-79
2023/10/06 01:29:10;;;;;;;9.02;3.10;;;12.60;99.90;;;;;;4972233;28;20030;-78
2023/10/06 01:31:39;;;;;;;8.88;2.85;;;12.60;99.90;;;;;;4942107;28;20049;-78
2023/10/06 01:34:07;;;;;;;11.88;3.67;;;12.60;99.90;;;;;;4973405;28;20030;-78
2023/10/06 01:36:35;;;;;;;5.97;2.83;;;12.50;99.90;;;;;;4968547;28;20034;-78
2023/10/06 01:39:35;;;;;;;6.28;3.17;;;12.50;99.90;;;;;;4955142;28;20502;-77
2023/10/06 01:41:52;;;;;;;8.63;3.15;;;12.50;99.90;;;;;;4977578;28;20062;-77
2023/10/06 01:44:18;;;;;;;9.30;3.33;;;12.50;99.90;;;;;;4972806;28;20042;-77
2023/10/06 01:46:44;;;;;;;7.18;3.00;;;12.60;99.90;;;;;;4971583;28;20400;-78
2023/10/06 01:49:10;;;;;;;8.35;3.10;;;12.50;99.90;;;;;;4971643;28;20038;-77
2023/10/06 01:51:39;;;;;;;4.28;2.75;;;12.50;99.90;;;;;;4971932;28;20030;-77
2023/10/06 01:54:12;;;;;;;11.50;2.47;;;12.50;99.90;;;;;;4957141;28;20033;-77
2023/10/06 01:56:42;;;;;;;6.97;3.17;;;12.50;99.90;;;;;;4953866;28;20027;-77
2023/10/06 01:59:10;;;;;;;10.52;3.20;;;12.50;99.90;;;;;;4971594;28;20034;-80
2023/10/06 02:01:38;;;;;;;8.48;2.67;;;12.50;99.90;;;;;;4970183;28;20046;-79
2023/10/06 02:04:07;;;;;;;8.80;2.72;;;12.50;99.90;;;;;;4975161;28;20034;-79
2023/10/06 02:06:33;;;;;;;10.27;2.88;;;12.50;99.90;;;;;;4973281;28;20034;-79
2023/10/06 02:08:59;;;;;;;14.63;3.25;;;12.40;99.90;;;;;;4974396;28;20524;-79
2023/10/06 02:11:30;;;;;;;10.07;3.10;;;12.40;99.90;;;;;;4972187;28;20032;-79
2023/10/06 02:13:57;;;;;;;7.25;3.40;;;12.30;99.90;;;;;;4973650;28;20030;-77
2023/10/06 02:16:26;;;;;;;9.23;3.85;;;12.40;99.90;;;;;;4951436;28;20054;-77
2023/10/06 02:18:54;;;;;;;7.20;3.15;;;12.30;99.90;;;;;;4955296;28;20034;-79
2023/10/06 02:21:24;;;;;;;16.05;3.63;;;12.40;99.90;;;;;;4970589;28;20054;-79
2023/10/06 02:23:51;;;;;;;10.82;3.53;;;12.30;99.90;;;;;;4955837;28;20117;-79
2023/10/06 02:26:17;;;;;;;9.43;3.10;;;12.40;99.90;;;;;;4971084;28;20144;-77
2023/10/06 02:28:44;;;;;;;5.40;2.63;;;12.30;99.90;;;;;;4978351;28;20038;-79
2023/10/06 02:31:10;;;;;;;5.63;2.72;;;12.40;99.90;;;;;;4956895;28;20053;-80
2023/10/06 02:33:39;;;;;;;7.53;2.78;;;12.30;99.90;;;;;;4971537;28;20514;-77
2023/10/06 02:36:26;;;;;;;11.20;3.10;;;12.40;99.90;;;;;;4977997;28;20046;-77
2023/10/06 02:38:51;;;;;;;6.25;2.63;;;12.40;99.90;;;;;;4976168;28;20042;-76
2023/10/06 02:41:18;;;;;;;7.25;2.88;;;12.30;99.90;;;;;;4986717;28;20372;-78
2023/10/06 02:43:51;;;;;;;7.00;2.47;;;12.40;99.90;;;;;;4971624;28;20038;-78
2023/10/06 02:46:20;;;;;;;10.30;2.95;;;12.40;99.90;;;;;;4954334;28;20066;-77
2023/10/06 02:48:49;;;;;;;7.82;2.78;;;12.40;99.90;;;;;;4980867;28;20375;-77
2023/10/06 02:52:07;;;;;;;11.35;2.85;;;12.40;99.90;;;;;;4973434;28;20035;-77
2023/10/06 02:54:21;;;;;;;5.85;3.03;;;12.40;99.90;;;;;;4967461;28;20033;-77
2023/10/06 02:56:47;;;;;;;;;;;12.40;99.90;;;;;;4973129;28;20053;-78
2023/10/06 02:59:22;;;;;;;6.55;2.88;;;12.40;99.90;;;;;;4953399;28;19921;-78
2023/10/06 03:02:00;;;;;;;5.97;2.60;;;12.40;99.90;;;;;;4956141;28;20037;-78
2023/10/06 03:04:26;;;;;;;9.60;2.72;;;12.40;99.90;;;;;;4965093;28;20041;-77
2023/10/06 03:06:57;;;;;;;7.53;3.83;;;12.30;99.90;;;;;;4974046;28;20482;-78
2023/10/06 03:09:38;;;;;;;9.52;2.95;;;12.30;99.90;;;;;;4970628;28;20031;-78
2023/10/06 03:12:11;;;;;;;7.78;2.53;;;12.30;99.90;;;;;;4979262;28;20450;-77
2023/10/06 03:14:37;;;;;;;8.68;2.95;;;12.30;99.90;;;;;;4971477;28;20493;-78
2023/10/06 03:17:10;;;;;;;13.82;3.50;;;12.30;99.90;;;;;;4959167;28;20038;-78
2023/10/06 03:19:40;;;;;;;6.20;1.80;;;12.30;99.90;;;;;;4954377;28;20034;-78
2023/10/06 03:22:07;;;;;;;4.70;2.38;;;12.30;99.90;;;;;;4960482;28;20037;-78
2023/10/06 03:24:33;;;;;;;5.85;2.60;;;12.30;99.90;;;;;;4973440;28;20045;-78
2023/10/06 03:26:59;;;;;;;7.20;2.85;;;12.20;99.90;;;;;;4976400;28;20084;-78
2023/10/06 03:30:07;;;;;;;6.45;2.35;;;12.30;99.90;;;;;;4974368;28;20033;-78
2023/10/06 03:32:32;;;;;;;8.40;3.42;;;12.20;99.90;;;;;;4978050;28;20096;-78
2023/10/06 03:35:05;;;;;;;7.90;3.42;;;12.20;99.90;;;;;;4961032;28;20077;-78
2023/10/06 03:38:08;;;;;;;8.25;2.50;;;12.20;99.90;;;;;;4960115;28;20484;-79
2023/10/06 03:40:34;;;;;;;9.32;3.25;;;12.20;99.90;;;;;;4973638;28;20072;-78
2023/10/06 03:43:06;;;;;;;5.88;2.45;;;12.20;99.90;;;;;;4960160;28;20501;-78
2023/10/06 03:45:32;;;;;;;6.50;4.15;;;12.20;99.90;;;;;;4967957;28;20454;-78
2023/10/06 03:48:12;;;;;;;4.32;2.67;;;12.20;99.90;;;;;;4978854;28;20034;-77
2023/10/06 03:50:38;;;;;;;6.18;3.10;;;12.20;99.90;;;;;;4979309;28;20510;-78
2023/10/06 03:53:07;;;;;;;5.28;2.53;;;12.10;99.90;;;;;;4961481;28;20030;-77
2023/10/06 03:55:39;;;;;;;8.52;3.47;;;12.20;99.90;;;;;;4957582;28;20043;-77
2023/10/06 03:58:09;;;;;;;8.40;2.88;;;12.10;99.90;;;;;;4974835;28;20116;-78
2023/10/06 04:00:38;;;;;;;7.82;3.40;;;12.10;99.90;;;;;;4963471;28;20038;-78
2023/10/06 04:03:09;;;;;;;8.45;2.72;;;12.10;99.90;;;;;;4960637;28;20121;-77
2023/10/06 04:05:37;;;;;;;5.07;1.92;;;12.20;99.90;;;;;;4972454;28;20041;-77
2023/10/06 04:08:11;;;;;;;9.15;2.60;;;12.20;99.90;;;;;;4997904;28;20121;-78
2023/10/06 04:10:44;;;;;;;4.85;1.65;;;12.20;99.90;;;;;;4975528;28;20161;-78
2023/10/06 04:13:10;;;;;;;6.85;2.80;;;12.10;99.90;;;;;;4974467;28;20038;-77
2023/10/06 04:15:39;;;;;;;4.38;1.88;;;12.20;99.90;;;;;;4974281;28;20530;-77
2023/10/06 04:18:10;;;;;;;4.75;2.10;;;12.20;99.90;;;;;;4969547;28;20451;-78
2023/10/06 04:20:40;;;;;;;6.50;2.75;;;12.10;99.90;;;;;;4958369;28;20529;-78
2023/10/06 04:23:06;;;;;;;6.28;2.45;;;12.10;99.90;;;;;;4990444;28;20450;-77
2023/10/06 04:25:37;;;;;;;7.03;3.40;;;12.10;99.90;;;;;;4974477;28;20045;-78
2023/10/06 04:28:14;;;;;;;7.68;3.53;;;12.00;99.90;;;;;;4960591;28;20035;-78
2023/10/06 04:30:42;;;;;;;4.32;3.20;;;12.00;99.90;;;;;;4979190;28;20561;-77
2023/10/06 04:33:11;;;;;;;10.15;3.33;;;12.00;99.90;;;;;;4972547;28;20034;-77
2023/10/06 04:35:40;;;;;;;6.65;2.78;;;11.90;99.90;;;;;;4963590;28;20030;-78
2023/10/06 04:38:10;;;;;;;11.55;3.13;;;11.90;99.90;;;;;;4978817;28;20045;-77
2023/10/06 04:40:36;;;;;;;7.90;2.70;;;11.90;99.90;;;;;;4963430;28;20133;-77
2023/10/06 04:43:03;;;;;;;7.18;3.20;;;12.00;99.90;;;;;;4975628;28;20030;-78
2023/10/06 04:45:31;;;;;;;5.80;3.13;;;12.00;99.90;;;;;;4960603;28;20042;-77
2023/10/06 04:47:58;;;;;;;9.48;3.10;;;12.00;99.90;;;;;;4962134;28;20405;-78
2023/10/06 04:50:26;;;;;;;11.50;3.03;;;11.90;99.90;;;;;;4977980;28;20133;-78
2023/10/06 04:52:54;;;;;;;6.78;2.50;;;11.90;99.90;;;;;;4955073;28;20913;-78
2023/10/06 04:55:19;;;;;;;10.60;3.22;;;12.00;99.90;;;;;;4973082;28;20114;-78
2023/10/06 04:57:45;;;;;;;6.47;2.38;;;12.00;99.90;;;;;;4957285;28;20029;-77
2023/10/06 05:00:15;;;;;;;6.78;2.80;;;12.00;99.90;;;;;;4974056;28;20113;-78
2023/10/06 05:02:44;;;;;;;5.35;2.22;;;11.90;99.90;;;;;;4959892;28;20039;-78
2023/10/06 05:05:19;;;;;;;7.57;2.47;;;11.90;99.90;;;;;;4960872;28;20092;-77
2023/10/06 05:07:45;;;;;;;6.87;2.53;;;11.90;99.90;;;;;;4972470;28;20061;-78
2023/10/06 05:10:11;;;;;;;4.63;2.30;;;12.00;99.90;;;;;;4958635;28;20394;-77
2023/10/06 05:12:42;;;;;;;8.85;2.55;;;11.90;99.90;;;;;;4955714;28;20146;-78
2023/10/06 05:15:08;;;;;;;8.95;3.28;;;11.90;99.90;;;;;;4958026;28;20034;-78
2023/10/06 05:17:34;;;;;;;6.18;2.47;;;12.00;99.90;;;;;;4971573;28;20730;-77
2023/10/06 05:20:01;;;;;;;6.25;2.55;;;12.00;99.90;;;;;;4952602;28;20041;-78
2023/10/06 05:22:26;;;;;;;8.52;2.83;;;12.00;99.90;;;;;;4973786;28;20038;-78
2023/10/06 05:24:52;;;;;;;9.63;3.63;;;12.00;99.90;;;;;;4974783;28;20074;-77
2023/10/06 05:27:22;;;;;;;4.80;2.78;;;12.00;99.90;;;;;;4957675;28;20023;-77
2023/10/06 05:29:49;;;;;;;6.97;2.80;;;11.90;99.90;;;;;;4957774;28;20038;-77
2023/10/06 05:32:15;;;;;;;4.88;2.30;;;12.00;99.90;;;;;;4977335;28;20072;-78
2023/10/06 05:34:40;;;;;;;6.93;2.60;;;12.00;99.90;;;;;;4956706;28;20076;-78
2023/10/06 05:37:08;;;;;;;6.47;1.75;;;12.00;99.90;;;;;;4974529;28;20046;-77
2023/10/06 05:39:34;;;;;;;6.03;2.95;;;12.00;99.90;;;;;;4956208;28;20544;-78
2023/10/06 05:42:00;;;;;;;8.43;2.75;;;12.10;99.90;;;;;;4975036;28;20031;-78
2023/10/06 05:44:25;;;;;;;9.10;2.45;;;12.00;99.90;;;;;;4956789;28;20034;-78
2023/10/06 05:46:51;;;;;;;8.65;2.15;;;12.10;99.90;;;;;;4975699;28;20026;-77
2023/10/06 05:49:21;;;;;;;6.97;2.80;;;12.10;99.90;;;;;;4971832;28;20045;-77
2023/10/06 05:51:49;;;;;;;7.75;3.60;;;12.20;99.90;;;;;;4961886;28;20483;-77
2023/10/06 05:54:23;;;;;;;12.82;2.50;;;12.10;99.90;;;;;;4955697;28;20044;-77
2023/10/06 05:56:53;;;;;;;7.13;3.28;;;12.10;99.90;;;;;;4959139;28;20046;-78
2023/10/06 05:59:21;;;;;;;7.43;2.53;;;12.10;99.90;;;;;;4971847;28;20033;-77
2023/10/06 06:01:56;;;;;;;5.78;2.28;;;12.10;99.90;;;;;;4970660;28;20038;-78
2023/10/06 06:04:27;;;;;;;8.45;2.60;;;12.10;99.90;;;;;;4976860;28;20702;-78
2023/10/06 06:06:56;;;;;;;5.57;2.78;;;12.20;99.90;;;;;;4974017;28;20026;-78
2023/10/06 06:09:23;;;;;;;6.22;2.67;;;12.20;99.90;;;;;;4973078;28;20468;-77
2023/10/06 06:11:48;;;;;;;12.13;3.53;;;12.10;99.90;;;;;;4976776;28;20030;-78
2023/10/06 06:14:14;;;;;;;9.75;3.15;;;12.10;99.90;;;;;;4971638;28;24277;-78
2023/10/06 06:16:44;;;;;;;5.60;2.80;;;12.20;99.90;;;;;;4972542;28;20117;-77
2023/10/06 06:19:11;;;;;;;9.60;4.13;;;12.30;99.90;;;;;;4974611;28;20383;-77
2023/10/06 06:21:38;;;;;;;5.10;2.85;;;12.20;99.90;;;;;;4970308;28;20048;-77
2023/10/06 06:24:06;;;;;;;6.63;2.30;;;12.30;99.90;;;;;;4957691;28;20030;-77
2023/10/06 06:26:32;;;;;;;6.90;2.90;;;12.40;99.90;;;;;;4957804;28;19928;-77
2023/10/06 06:29:02;;;;;;;8.25;2.78;;;12.40;99.90;;;;;;4975843;28;20026;-77
2023/10/06 06:31:34;;;;;;;6.78;2.72;;;12.40;99.90;;;;;;4971002;28;20620;-77
2023/10/06 06:34:04;;;;;;;5.35;2.80;;;12.50;99.90;;;;;;4956874;28;20126;-77
2023/10/06 06:36:31;;;;;;;5.32;2.33;;;12.50;99.90;;;;;;4956271;28;20650;-77
2023/10/06 06:38:58;;;;;;;6.22;2.63;;;12.60;99.90;;;;;;4956099;28;20037;-77
2023/10/06 06:41:26;;;;;;;7.78;2.55;;;12.70;99.90;;;;;;4953459;28;20553;-77
2023/10/06 06:43:58;;;;;;;7.60;2.45;;;12.70;99.90;;;;;;4973250;28;20078;-77
2023/10/06 06:46:29;;;;;;;4.47;2.10;;;12.80;99.90;;;;;;4958982;28;20031;-77
2023/10/06 06:48:59;;;;;;;6.32;1.98;;;12.90;99.90;;;;;;4976329;28;20057;-77
2023/10/06 06:51:27;;;;;;;9.57;1.90;;;12.90;99.90;;;;;;4957329;28;20039;-77
2023/10/06 06:53:56;;;;;;;7.50;2.55;;;13.00;99.90;;;;;;4955108;28;20038;-77
2023/10/06 06:56:24;;;;;;;6.85;2.20;;;13.00;99.90;;;;;;4968786;28;20038;-77
2023/10/06 06:58:51;;;;;;;5.45;2.38;;;13.10;99.90;;;;;;4982788;28;20038;-77
2023/10/06 07:01:17;;;;;;;9.23;3.83;;;13.30;99.90;;;;;;4978576;28;20047;-76
2023/10/06 07:03:43;;;;;;;6.28;2.70;;;13.30;99.90;;;;;;4977283;28;20049;-76
2023/10/06 07:06:14;;;;;;;6.78;2.40;;;13.30;99.90;;;;;;4975251;28;20038;-76
2023/10/06 07:08:39;;;;;;;4.15;2.08;;;13.40;99.90;;;;;;4957466;28;20561;-76
2023/10/06 07:11:10;;;;;;;6.63;2.35;;;13.50;99.90;;;;;;4975876;28;20170;-76
2023/10/06 07:13:36;;;;;;;5.10;1.90;;;13.60;99.90;;;;;;4975173;28;20030;-76
2023/10/06 07:16:05;;;;;;;7.65;2.55;;;13.70;99.90;;;;;;4961457;28;20490;-76
2023/10/06 07:18:31;;;;;;;11.10;2.65;;;13.70;99.90;;;;;;4977748;28;20030;-76
2023/10/06 07:20:58;;;;;;;6.35;2.40;;;13.70;99.90;;;;;;4942620;28;20529;-76
2023/10/06 07:23:24;;;;;;;5.03;2.13;;;13.80;99.90;;;;;;4974153;28;20398;-77
2023/10/06 07:25:50;;;;;;;5.35;2.15;;;13.80;99.90;;;;;;4979007;28;20031;-77
2023/10/06 07:28:17;;;;;;;5.63;2.20;;;13.90;99.90;;;;;;4998332;28;20568;-76
2023/10/06 07:30:43;;;;;;;7.68;2.75;;;13.90;99.90;;;;;;4957259;28;20710;-76
2023/10/06 07:33:09;;;;;;;3.85;1.25;;;13.90;99.90;;;;;;4962460;28;20031;-77
2023/10/06 07:35:41;;;;;;;8.35;2.10;;;14.00;99.90;;;;;;4974269;28;20057;-77
2023/10/06 07:38:08;;;;;;;4.55;1.65;;;14.00;99.90;;;;;;4962525;28;20529;-77
2023/10/06 07:40:33;;;;;;;10.18;2.65;;;14.10;99.90;;;;;;4945177;28;20494;-77
2023/10/06 07:42:59;;;;;;;5.32;1.90;;;14.10;99.90;;;;;;4979153;28;20039;-77
2023/10/06 07:45:26;;;;;;;4.53;2.03;;;14.10;99.90;;;;;;4978340;28;20076;-77
2023/10/06 07:47:53;;;;;;;4.07;1.80;;;14.20;99.90;;;;;;4980008;28;20471;-77
2023/10/06 07:50:19;;;;;;;7.35;2.05;;;14.30;99.90;;;;;;4971925;28;20124;-78
2023/10/06 07:52:46;;;;;;;;;;;14.30;99.90;;;;;;4631198;28;10000200;-77
2023/10/06 07:55:12;;;;;;;3.78;2.13;;;14.40;99.90;;;;;;4975930;28;19957;-77
2023/10/06 07:57:41;;;;;;;2.38;1.70;;;14.50;99.90;;;;;;4972334;28;20902;-77
2023/10/06 08:00:08;;;;;;;8.38;2.67;;;14.70;99.90;;;;;;4957185;28;20030;-78
2023/10/06 08:02:36;;;;;;;2.83;2.05;;;14.70;99.90;;;;;;4956864;28;20042;-78
2023/10/06 08:05:01;;;;;;;7.30;2.42;;;14.70;99.90;;;;;;4959293;28;20495;-78
2023/10/06 08:07:27;;;;;;;2.90;1.20;;;14.70;99.90;;;;;;4956700;28;20058;-77
2023/10/06 08:09:59;;;;;;;6.32;2.20;;;14.70;99.90;;;;;;4976616;28;20560;-77
2023/10/06 08:12:27;;;;;;;6.45;1.50;;;14.80;99.90;;;;;;4955517;28;20041;-78
2023/10/06 08:14:54;;;;;;;5.15;2.00;;;14.80;99.90;;;;;;4973817;28;20034;-78
2023/10/06 08:17:20;;;;;;;8.43;2.15;;;14.80;99.90;;;;;;4972787;28;20045;-78
2023/10/06 08:19:46;;;;;;;8.77;2.17;;;14.80;99.90;;;;;;4974203;28;20042;-78
2023/10/06 08:22:12;;;;;;;7.68;2.08;;;14.90;99.90;;;;;;4961104;28;20054;-78
2023/10/06 08:24:38;;;;;;;7.07;2.58;;;15.00;99.90;;;;;;4960691;28;20051;-78
2023/10/06 08:27:06;;;;;;;10.75;1.55;;;15.00;99.90;;;;;;4960655;28;20042;-78
2023/10/06 08:29:33;;;;;;;10.65;2.70;;;15.20;99.90;;;;;;4962625;28;20213;-78
2023/10/06 08:31:59;;;;;;;11.93;3.22;;;15.10;99.90;;;;;;4973063;28;20042;-78
2023/10/06 08:34:25;;;;;;;2.08;1.35;;;15.30;99.90;;;;;;4961170;28;20228;-77
2023/10/06 08:36:51;;;;;;;5.82;2.35;;;15.40;99.90;;;;;;4972801;28;20038;-78
2023/10/06 08:39:17;;;;;;;3.83;1.73;;;15.40;99.90;;;;;;4975339;28;20403;-78
2023/10/06 08:41:43;;;;;;;5.38;1.73;;;15.40;99.90;;;;;;4973650;28;20634;-78
2023/10/06 08:44:09;;;;;;;4.38;2.30;;;15.60;99.90;;;;;;4959167;28;20031;-78
2023/10/06 08:46:41;;;;;;;4.63;1.67;;;15.60;99.90;;;;;;4957709;28;20093;-78
2023/10/06 08:49:07;;;;;;;4.40;2.03;;;15.80;99.90;;;;;;4973741;28;20049;-78
2023/10/06 08:51:32;;;;;;;5.57;2.88;;;15.90;99.90;;;;;;4958287;28;20395;-79
2023/10/06 08:53:58;;;;;;;7.78;2.03;;;16.10;99.90;;;;;;4968575;28;20030;-78
2023/10/06 08:56:23;;;;;;;4.70;2.10;;;16.20;99.90;;;;;;4961716;28;20038;-78
2023/10/06 08:58:51;;;;;;;5.15;2.08;;;16.30;99.90;;;;;;4960925;28;20034;-78
2023/10/06 09:01:17;;;;;;;7.20;2.17;;;16.30;99.90;;;;;;4944624;28;20562;-78
2023/10/06 09:03:43;;;;;;;5.47;2.17;;;16.50;99.90;;;;;;4976080;28;20041;-78
2023/10/06 09:06:11;;;;;;;5.72;2.35;;;16.70;99.90;;;;;;4956469;28;20041;-78
2023/10/06 09:08:41;;;;;;;7.88;2.65;;;16.70;99.90;;;;;;4973040;28;20122;-78
2023/10/06 09:11:06;;;;;;;10.20;2.05;;;16.90;99.90;;;;;;4976514;28;20030;-78
2023/10/06 09:13:32;;;;;;;7.32;2.63;;;16.90;99.90;;;;;;4959435;28;20034;-78
2023/10/06 09:16:06;;;;;;;7.10;2.65;;;17.10;99.90;;;;;;4957101;28;20026;-78
2023/10/06 09:18:34;;;;;;;4.65;2.30;;;17.30;99.90;;;;;;4969217;28;20514;-79
2023/10/06 09:21:16;;;;;;;3.33;1.13;;;17.30;99.90;;;;;;4972449;28;20137;-78
2023/10/06 09:23:41;;;;;;;3.17;1.50;;;17.60;99.90;;;;;;4955415;28;20097;-79
2023/10/06 09:26:08;;;;;;;7.63;2.75;;;17.60;99.90;;;;;;4972284;28;20572;-79
2023/10/06 09:28:34;;;;;;;4.40;2.05;;;17.50;99.90;;;;;;4953550;28;20982;-78
2023/10/06 09:31:01;;;;;;;7.22;1.90;;;17.80;99.90;;;;;;4970293;28;20130;-78
2023/10/06 09:33:37;;;;;;;4.53;2.63;;;17.90;98.80;;;;;;4973130;28;20037;-78
2023/10/06 09:36:07;;;;;;;5.85;2.53;;;17.90;99.60;;;;;;4973005;28;20562;-78
2023/10/06 09:38:36;;;;;;;8.48;2.28;;;18.10;98.80;;;;;;4972945;28;20134;-78
2023/10/06 09:41:02;;;;;;;7.93;2.40;;;18.10;98.50;;;;;;4968725;28;20034;-78
2023/10/06 09:43:28;;;;;;;4.45;2.33;;;18.30;98.30;;;;;;4964803;28;20038;-78
2023/10/06 09:45:55;;;;;;;6.45;2.75;;;18.40;98.20;;;;;;4941125;28;20843;-78
2023/10/06 09:48:33;;;;;;;5.03;2.60;;;18.50;97.70;;;;;;4972928;28;20030;-78
2023/10/06 09:51:00;;;;;;;9.43;2.90;;;18.50;98.30;;;;;;4954482;28;20070;-78
2023/10/06 09:53:26;;;;;;;6.50;1.80;;;18.70;97.90;;;;;;4977403;28;20076;-78
2023/10/06 09:55:52;;;;;;;7.28;2.42;;;18.80;97.40;;;;;;4968942;28;20033;-78
2023/10/06 09:58:18;;;;;;;6.78;1.52;;;18.80;97.30;;;;;;4971816;28;20046;-78
2023/10/06 10:00:43;;;;;;;6.65;2.78;;;18.90;97.20;;;;;;4972871;28;20038;-78
2023/10/06 10:03:12;;;;;;;12.48;2.42;;;19.10;96.70;;;;;;4971774;28;20092;-78
2023/10/06 10:05:39;;;;;;;5.88;2.70;;;19.20;96.60;;;;;;4974682;28;20118;-81
2023/10/06 10:08:08;;;;;;;8.48;3.22;;;19.50;96.80;;;;;;4971072;28;20517;-79
2023/10/06 10:10:40;;;;;;;5.88;2.03;;;19.50;96.80;;;;;;4954529;28;20124;-78
2023/10/06 10:13:34;;;;;;;7.13;2.75;;;19.60;96.60;;;;;;4952144;28;20437;-78
2023/10/06 10:16:11;;;;;;;5.45;2.50;;;19.80;96.20;;;;;;4971634;28;21004;-78
2023/10/06 10:18:40;;;;;;;11.48;2.58;;;19.80;95.40;;;;;;4978021;28;20031;-78
2023/10/06 10:21:08;;;;;;;3.22;1.45;;;19.90;96.00;;;;;;4970330;28;20175;-78
2023/10/06 10:23:37;;;;;;;6.10;2.47;;;19.90;96.00;;;;;;4957470;28;20038;-78
2023/10/06 10:26:36;;;;;;;9.27;3.72;;;20.00;95.20;;;;;;4972371;28;20038;-78
2023/10/06 10:29:15;;;;;;;5.28;2.05;;;20.10;95.30;;;;;;4973659;28;20038;-80
2023/10/06 10:31:47;;;;;;;4.82;1.95;;;20.20;95.00;;;;;;4987468;28;20486;-78
2023/10/06 10:34:20;;;;;;;3.30;1.55;;;20.30;95.40;;;;;;4972471;28;20781;-77
2023/10/06 10:36:48;;;;;;;4.82;1.95;;;20.10;94.60;;;;;;4973913;28;20057;-78
2023/10/06 10:39:16;;;;;;;8.55;2.38;;;20.10;94.80;;;;;;4968595;28;20045;-77
2023/10/06 10:41:42;;;;;;;7.90;1.48;;;20.10;96.40;;;;;;4955462;28;20034;-78
2023/10/06 10:44:14;;;;;;;6.05;2.17;;;20.10;95.60;;;;;;4956722;28;20542;-78
2023/10/06 10:46:44;;;;;;;6.47;1.60;;;20.10;95.10;;;;;;4958122;28;20514;-78
2023/10/06 10:49:11;;;;;;;6.40;2.00;;;20.10;94.10;;;;;;4964222;28;20407;-78
2023/10/06 10:51:51;;;;;;;3.05;1.00;;;20.20;94.20;;;;;;4979994;28;20042;-78
2023/10/06 10:54:21;;;;;;;3.63;1.83;;;20.20;93.80;;;;;;4973480;28;20034;-78
2023/10/06 10:56:51;;;;;;;6.75;2.15;;;20.40;93.90;;;;;;4970995;28;20089;-79
2023/10/06 10:59:17;;;;;;;3.00;1.23;;;20.40;94.00;;;;;;4957290;28;20025;-79
2023/10/06 11:01:44;;;;;;;5.55;1.63;;;20.80;93.60;;;;;;4954289;28;20037;-78
2023/10/06 11:04:09;;;;;;;6.18;2.40;;;20.80;93.70;;;;;;4965871;28;21436;-78
2023/10/06 11:06:35;;;;;;;4.07;2.15;;;20.90;94.20;;;;;;4970334;28;20121;-78
2023/10/06 11:09:12;;;;;;;6.10;1.23;;;20.90;93.60;;;;;;4975253;28;20087;-78
2023/10/06 11:11:40;;;;;;;7.30;2.20;;;21.10;93.10;;;;;;4974993;28;20042;-79
2023/10/06 11:14:05;;;;;;;8.77;2.28;;;21.20;92.50;;;;;;4955583;28;20034;-79
2023/10/06 11:16:32;;;;;;;6.20;2.25;;;21.10;92.10;;;;;;4964618;28;20032;-78
2023/10/06 11:18:58;;;;;;;5.05;2.28;;;21.00;92.90;;;;;;4971362;28;20394;-78
2023/10/06 11:21:25;;;;;;;9.25;2.42;;;21.10;93.40;;;;;;4975201;28;21044;-78
2023/10/06 11:23:50;;;;;;;9.18;2.78;;;21.20;93.10;;;;;;4949110;28;20043;-79
2023/10/06 11:26:29;;;;;;;4.78;1.98;;;21.30;92.40;;;;;;4959311;28;20038;-77
2023/10/06 11:28:55;;;;;;;11.30;1.67;;;21.50;91.00;;;;;;4938437;28;20626;-78
2023/10/06 11:31:23;;;;;;;5.78;2.00;;;21.50;91.00;;;;;;4977453;28;20053;-80
2023/10/06 11:33:49;;;;;;;1.08;0.55;;;21.50;91.20;;;;;;4971965;28;20038;-78
2023/10/06 11:36:16;;;;;;;4.18;1.52;;;21.60;90.90;;;;;;4973127;28;20207;-79
2023/10/06 11:38:42;;;;;;;4.50;1.70;;;21.70;90.80;;;;;;4954597;28;20054;-79
2023/10/06 11:41:07;;;;;;;6.70;2.10;;;21.80;90.70;;;;;;4968878;28;20898;-79
2023/10/06 11:43:33;;;;;;;6.45;1.83;;;21.90;90.50;;;;;;4957582;28;20125;-78
2023/10/06 11:46:02;;;;;;;4.72;1.70;;;22.00;90.30;;;;;;4975631;28;20045;-79
2023/10/06 11:48:29;;;;;;;6.82;2.17;;;22.00;90.60;;;;;;4959893;28;20046;-80
2023/10/06 11:51:06;;;;;;;4.47;2.05;;;22.20;90.30;;;;;;4972475;28;20038;-79
2023/10/06 11:53:32;;;;;;;5.90;2.08;;;22.10;90.00;;;;;;4992110;28;20490;-79
2023/10/06 11:56:12;;;;;;;3.85;2.28;;;22.00;89.60;;;;;;4977640;28;20120;-79
2023/10/06 11:58:39;;;;;;;5.30;1.85;;;21.90;89.00;;;;;;4973005;28;20572;-78
2023/10/06 12:01:05;;;;;;;9.52;2.63;;;21.80;90.00;;;;;;4963171;28;20033;-78
2023/10/06 12:03:42;;;;;;;5.60;2.45;;;21.80;90.30;;;;;;4960735;28;20525;-79
2023/10/06 12:06:23;;;;;;;7.68;2.45;;;21.80;90.80;;;;;;4963441;28;20538;-79
2023/10/06 12:08:52;;;;;;;3.50;1.58;;;21.80;90.60;;;;;;4961346;28;20041;-79
2023/10/06 12:11:20;;;;;;;9.05;1.88;;;22.00;89.90;;;;;;4977809;28;20030;-79
2023/10/06 12:13:46;;;;;;;6.03;1.65;;;22.00;90.80;;;;;;4975534;28;20529;-80
2023/10/06 12:16:13;;;;;;;3.67;1.77;;;22.10;90.00;;;;;;4958787;28;20027;-79
2023/10/06 12:18:38;;;;;;;4.78;1.88;;;22.40;88.70;;;;;;4963781;28;20470;-79
2023/10/06 12:21:06;;;;;;;8.10;2.55;;;22.30;90.10;;;;;;4975429;28;20113;-79
2023/10/06 12:23:32;;;;;;;5.22;2.03;;;22.40;88.90;;;;;;4972571;28;20042;-79
2023/10/06 12:25:58;;;;;;;6.78;2.47;;;22.30;87.40;;;;;;4962720;28;20045;-80
2023/10/06 12:28:25;;;;;;;6.53;2.30;;;22.20;90.00;;;;;;4942925;28;20038;-79
2023/10/06 12:30:52;;;;;;;3.35;1.00;;;22.20;89.50;;;;;;4960533;28;20034;-79
2023/10/06 12:33:17;;;;;;;12.73;2.00;;;22.40;88.70;;;;;;4942037;28;20631;-78
2023/10/06 12:35:43;;;;;;;5.00;1.83;;;22.20;88.70;;;;;;4974780;28;20129;-78
2023/10/06 12:38:09;;;;;;;8.75;1.75;;;22.40;88.90;;;;;;4955276;28;20038;-78
2023/10/06 12:40:34;;;;;;;4.40;1.83;;;22.40;89.70;;;;;;4976343;28;20092;-79
2023/10/06 12:43:00;;;;;;;2.90;1.60;;;22.40;88.10;;;;;;4959471;28;20039;-79
2023/10/06 12:45:28;;;;;;;6.07;2.35;;;22.30;90.00;;;;;;4963223;28;20036;-78
2023/10/06 12:47:54;;;;;;;6.13;2.03;;;22.30;90.00;;;;;;4991786;28;20091;-79
2023/10/06 12:50:21;;;;;;;5.03;2.70;;;22.30;88.80;;;;;;4978249;28;20042;-78
2023/10/06 12:52:51;;;;;;;6.15;2.10;;;22.40;88.30;;;;;;4958061;28;20045;-78
2023/10/06 12:55:21;;;;;;;4.57;2.22;;;22.50;89.10;;;;;;4941741;28;20064;-79
2023/10/06 12:57:50;;;;;;;6.60;2.55;;;22.50;88.80;;;;;;4970804;28;20201;-79